createdAt,value
2018-05-29T00:01:19.549Z,98070.87
2018-05-29T00:03:47.005Z,98075.58
2018-05-29T00:06:14.545Z,98076.25
2018-05-29T00:08:42.000Z,98072.69
2018-05-29T00:11:09.439Z,98071.73
2018-05-29T00:13:36.879Z,98065.98
2018-05-29T00:16:04.450Z,98058.16
2018-05-29T00:18:31.915Z,98050.47
2018-05-29T00:20:59.381Z,98061.16
2018-05-29T00:23:26.820Z,98056.54
2018-05-29T00:25:54.297Z,98052.74
2018-05-29T00:28:21.787Z,98046.45
2018-05-29T00:30:49.262Z,98050.77
2018-05-29T00:33:16.754Z,98043.79
2018-05-29T00:35:44.191Z,98044.28
2018-05-29T00:38:11.636Z,98042.64
2018-05-29T00:40:39.117Z,98042.30
2018-05-29T00:43:06.594Z,98038.77
2018-05-29T00:45:34.036Z,98029.37
2018-05-29T00:48:01.475Z,98028.75
2018-05-29T00:50:28.937Z,98029.58
2018-05-29T00:52:56.478Z,98031.70
2018-05-29T00:55:35.757Z,98033.80
2018-05-29T00:58:03.212Z,98035.99
2018-05-29T01:00:30.661Z,98044.16
2018-05-29T01:02:58.185Z,98052.44
2018-05-29T01:05:25.733Z,98059.95
2018-05-29T01:07:53.176Z,98058.84
2018-05-29T01:10:20.734Z,98063.41
2018-05-29T01:12:48.258Z,98057.76
2018-05-29T01:15:15.684Z,98061.96
2018-05-29T01:17:43.156Z,98054.08
2018-05-29T01:20:10.616Z,98054.80
2018-05-29T01:22:38.065Z,98057.13
2018-05-29T01:25:05.533Z,98061.75
2018-05-29T01:27:34.016Z,98063.78
2018-05-29T01:30:01.452Z,98067.88
2018-05-29T01:32:28.896Z,98063.28
2018-05-29T01:34:56.361Z,98070.58
2018-05-29T01:37:23.821Z,98073.08
2018-05-29T01:39:51.254Z,98076.66
2018-05-29T01:42:18.756Z,98072.59
2018-05-29T01:44:46.224Z,98079.17
2018-05-29T01:47:13.665Z,98073.56
2018-05-29T01:49:41.153Z,98077.10
2018-05-29T01:52:08.630Z,98071.66
2018-05-29T01:54:36.146Z,98073.02
2018-05-29T01:57:03.572Z,98075.91
2018-05-29T01:59:31.038Z,98074.35
2018-05-29T02:01:58.500Z,98073.08
2018-05-29T02:04:26.349Z,98079.59
2018-05-29T02:06:53.803Z,98077.94
2018-05-29T02:09:21.331Z,98071.83
2018-05-29T02:11:48.788Z,98070.70
2018-05-29T02:14:16.261Z,98073.98
2018-05-29T02:16:43.715Z,98071.16
2018-05-29T02:19:11.154Z,98066.36
2018-05-29T02:21:38.790Z,98065.31
2018-05-29T02:24:06.238Z,98067.00
2018-05-29T02:26:33.683Z,98064.59
2018-05-29T02:29:01.230Z,98069.95
2018-05-29T02:31:28.658Z,98083.14
2018-05-29T02:33:56.112Z,98087.58
2018-05-29T02:36:23.542Z,98085.47
2018-05-29T02:38:50.995Z,98083.73
2018-05-29T02:41:18.446Z,98083.89
2018-05-29T02:43:45.872Z,98080.39
2018-05-29T02:46:13.393Z,98081.08
2018-05-29T02:48:40.866Z,98083.56
2018-05-29T02:51:08.405Z,98087.33
2018-05-29T02:53:35.850Z,98081.67
2018-05-29T02:56:03.312Z,98090.40
2018-05-29T02:58:30.766Z,98087.25
2018-05-29T03:00:58.198Z,98093.38
2018-05-29T03:03:25.669Z,98098.62
2018-05-29T03:05:53.100Z,98102.94
2018-05-29T03:08:20.557Z,98102.14
2018-05-29T03:10:48.020Z,98116.31
2018-05-29T03:13:15.465Z,98116.94
2018-05-29T03:15:42.940Z,98120.39
2018-05-29T03:18:10.389Z,98124.34
2018-05-29T03:20:37.830Z,98131.23
2018-05-29T03:23:05.334Z,98141.84
2018-05-29T03:25:32.894Z,98140.69
2018-05-29T03:28:00.335Z,98136.20
2018-05-29T03:30:27.767Z,98128.36
2018-05-29T03:32:55.219Z,98121.28
2018-05-29T03:35:22.656Z,98127.40
2018-05-29T03:37:50.160Z,98130.29
2018-05-29T03:40:17.606Z,98122.27
2018-05-29T03:42:45.064Z,98132.16
2018-05-29T03:45:12.556Z,98127.68
2018-05-29T03:47:40.009Z,98130.22
2018-05-29T03:50:07.459Z,98130.00
2018-05-29T03:52:34.915Z,98135.42
2018-05-29T03:55:02.381Z,98139.27
2018-05-29T03:57:29.810Z,98140.19
2018-05-29T03:59:57.366Z,98150.56
2018-05-29T04:02:24.818Z,98144.16
2018-05-29T04:04:52.237Z,98143.23
2018-05-29T04:07:19.694Z,98142.61
2018-05-29T04:09:47.175Z,98139.67
2018-05-29T04:12:14.670Z,98130.01
2018-05-29T04:14:42.116Z,98128.11
2018-05-29T04:17:09.604Z,98125.14
2018-05-29T04:19:37.158Z,98122.73
2018-05-29T04:22:04.740Z,98126.45
2018-05-29T04:24:32.280Z,98120.83
2018-05-29T04:26:59.722Z,98131.66
2018-05-29T04:29:27.190Z,98130.65
2018-05-29T04:31:54.738Z,98128.20
2018-05-29T04:34:22.202Z,98135.73
2018-05-29T04:36:49.653Z,98135.30
2018-05-29T04:39:17.108Z,98136.09
2018-05-29T04:41:44.681Z,98141.52
2018-05-29T04:44:12.117Z,98142.64
2018-05-29T04:46:39.590Z,98146.98
2018-05-29T04:49:07.028Z,98141.75
2018-05-29T04:51:34.465Z,98142.59
2018-05-29T04:54:01.912Z,98146.75
2018-05-29T04:56:29.465Z,98145.17
2018-05-29T04:58:56.925Z,98136.69
2018-05-29T05:01:24.368Z,98140.89
2018-05-29T05:03:51.836Z,98139.17
2018-05-29T05:06:19.318Z,98137.67
2018-05-29T05:08:46.772Z,98137.73
2018-05-29T05:11:14.242Z,98142.94
2018-05-29T05:13:41.699Z,98144.25
2018-05-29T05:16:09.185Z,98146.66
2018-05-29T05:18:36.621Z,98142.80
2018-05-29T05:21:04.089Z,98139.96
2018-05-29T05:23:31.527Z,98137.02
2018-05-29T05:25:59.011Z,98135.69
2018-05-29T05:28:26.450Z,98134.83
2018-05-29T05:30:53.906Z,98141.91
2018-05-29T05:33:21.608Z,98145.31
2018-05-29T05:35:49.049Z,98148.61
2018-05-29T05:38:16.484Z,98146.41
2018-05-29T05:40:44.023Z,98144.43
2018-05-29T05:43:11.450Z,98154.36
2018-05-29T05:45:38.900Z,98146.80
2018-05-29T05:48:06.451Z,98151.24
2018-05-29T05:50:33.932Z,98141.47
2018-05-29T05:53:01.362Z,98144.77
2018-05-29T05:55:28.892Z,98143.09
2018-05-29T05:57:56.322Z,98144.20
2018-05-29T06:00:23.783Z,98149.59
2018-05-29T06:02:51.244Z,98154.61
2018-05-29T06:05:18.691Z,98144.48
2018-05-29T06:07:46.196Z,98142.27
2018-05-29T06:10:13.758Z,98140.94
2018-05-29T06:12:41.328Z,98139.33
2018-05-29T06:15:08.773Z,98145.84
2018-05-29T06:17:36.384Z,98144.61
2018-05-29T06:20:03.831Z,98143.95
2018-05-29T06:22:31.285Z,98141.93
2018-05-29T06:24:58.735Z,98139.28
2018-05-29T06:27:26.247Z,98139.80
2018-05-29T06:29:53.737Z,98142.06
2018-05-29T06:32:21.177Z,98148.78
2018-05-29T06:34:48.827Z,98157.16
2018-05-29T06:37:16.289Z,98160.52
2018-05-29T06:39:43.772Z,98162.39
2018-05-29T06:42:11.305Z,98162.03
2018-05-29T06:44:38.795Z,98165.88
2018-05-29T06:47:06.256Z,98159.23
2018-05-29T06:49:33.737Z,98157.12
2018-05-29T06:52:01.177Z,98161.05
2018-05-29T06:54:28.650Z,98159.13
2018-05-29T06:56:56.101Z,98162.25
2018-05-29T06:59:23.536Z,98163.98
2018-05-29T07:01:50.991Z,98162.25
2018-05-29T07:04:18.456Z,98170.84
2018-05-29T07:06:45.913Z,98175.16
2018-05-29T07:09:30.421Z,98171.40
2018-05-29T07:11:57.897Z,98164.59
2018-05-29T07:14:25.458Z,98163.08
2018-05-29T07:16:52.904Z,98159.62
2018-05-29T07:19:20.449Z,98157.78
2018-05-29T07:21:47.891Z,98154.47
2018-05-29T07:24:15.367Z,98160.53
2018-05-29T07:26:42.831Z,98159.58
2018-05-29T07:29:10.286Z,98152.17
2018-05-29T07:31:37.743Z,98145.17
2018-05-29T07:34:05.202Z,98143.51
2018-05-29T07:36:32.632Z,98144.73
2018-05-29T07:39:00.074Z,98133.02
2018-05-29T07:41:27.617Z,98136.50
2018-05-29T07:43:55.099Z,98138.52
2018-05-29T07:46:22.591Z,98134.81
2018-05-29T07:48:50.035Z,98133.00
2018-05-29T07:51:17.489Z,98134.95
2018-05-29T07:53:45.070Z,98135.02
2018-05-29T07:56:12.496Z,98136.47
2018-05-29T07:58:39.929Z,98135.82
2018-05-29T08:01:07.471Z,98136.30
2018-05-29T08:03:35.016Z,98128.78
2018-05-29T08:06:02.582Z,98134.30
2018-05-29T08:08:30.129Z,98135.67
2018-05-29T08:10:57.738Z,98139.04
2018-05-29T08:13:25.239Z,98142.70
2018-05-29T08:15:52.716Z,98142.30
2018-05-29T08:18:20.253Z,98140.27
2018-05-29T08:20:47.735Z,98132.76
2018-05-29T08:23:15.203Z,98143.47
2018-05-29T08:25:42.731Z,98142.39
2018-05-29T08:28:10.182Z,98137.84
2018-05-29T08:30:37.657Z,98140.05
2018-05-29T08:33:05.115Z,98142.48
2018-05-29T08:35:32.802Z,98145.49
2018-05-29T08:38:00.301Z,98149.02
2018-05-29T08:40:27.753Z,98146.77
2018-05-29T08:42:55.218Z,98151.81
2018-05-29T08:45:22.722Z,98152.28
2018-05-29T08:47:50.264Z,98158.30
2018-05-29T08:50:17.721Z,98156.11
2018-05-29T08:52:45.272Z,98159.71
2018-05-29T08:55:12.732Z,98154.29
2018-05-29T08:57:40.191Z,98151.09
2018-05-29T09:00:07.646Z,98147.88
2018-05-29T09:02:35.127Z,98149.77
2018-05-29T09:05:02.717Z,98157.68
2018-05-29T09:07:30.237Z,98169.17
2018-05-29T09:09:57.699Z,98158.97
2018-05-29T09:12:25.151Z,98160.84
2018-05-29T09:14:52.590Z,98158.28
2018-05-29T09:17:20.017Z,98158.80
2018-05-29T09:19:47.512Z,98167.33
2018-05-29T09:22:15.003Z,98180.37
2018-05-29T09:24:42.505Z,98172.23
2018-05-29T09:27:09.953Z,98160.56
2018-05-29T09:29:37.455Z,98155.39
2018-05-29T09:32:04.977Z,98155.80
2018-05-29T09:34:32.572Z,98161.97
2018-05-29T09:37:00.103Z,98163.33
2018-05-29T09:39:27.594Z,98158.52
2018-05-29T09:41:55.153Z,98159.23
2018-05-29T09:44:22.580Z,98168.89
2018-05-29T09:46:50.013Z,98171.10
2018-05-29T09:49:17.594Z,98170.27
2018-05-29T09:51:45.087Z,98161.00
2018-05-29T09:54:12.547Z,98165.17
2018-05-29T09:56:40.216Z,98159.45
2018-05-29T09:59:07.682Z,98157.38
2018-05-29T10:01:35.128Z,98153.52
2018-05-29T10:04:02.620Z,98152.97
2018-05-29T10:06:30.193Z,98153.94
2018-05-29T10:08:57.988Z,98150.11
2018-05-29T10:11:25.540Z,98151.52
2018-05-29T10:13:53.424Z,98145.92
2018-05-29T10:16:21.320Z,98144.48
2018-05-29T10:18:49.013Z,98146.22
2018-05-29T10:21:16.454Z,98146.39
2018-05-29T10:23:43.941Z,98153.53
2018-05-29T10:26:11.419Z,98150.74
2018-05-29T10:28:39.022Z,98150.97
2018-05-29T10:31:06.508Z,98152.05
2018-05-29T10:33:35.955Z,98150.81
2018-05-29T10:36:03.407Z,98152.23
2018-05-29T10:38:33.067Z,98149.13
2018-05-29T10:41:00.529Z,98153.50
2018-05-29T10:43:27.999Z,98144.98
2018-05-29T10:45:55.492Z,98145.89
2018-05-29T10:48:22.913Z,98142.34
2018-05-29T10:50:50.449Z,98147.54
2018-05-29T10:53:17.944Z,98145.51
2018-05-29T10:55:45.433Z,98149.41
2018-05-29T10:58:12.983Z,98148.11
2018-05-29T11:00:40.537Z,98146.66
2018-05-29T11:03:08.072Z,98141.31
2018-05-29T11:05:35.580Z,98144.26
2018-05-29T11:08:03.049Z,98143.84
2018-05-29T11:10:30.575Z,98150.72
2018-05-29T11:12:58.110Z,98147.13
2018-05-29T11:15:25.836Z,98148.50
2018-05-29T11:17:53.314Z,98145.12
2018-05-29T11:20:20.931Z,98148.25
2018-05-29T11:22:48.371Z,98144.73
2018-05-29T11:25:15.805Z,98140.98
2018-05-29T11:27:43.245Z,98146.24
2018-05-29T11:30:10.677Z,98143.22
2018-05-29T11:32:38.151Z,98136.50
2018-05-29T11:35:05.581Z,98140.72
2018-05-29T11:37:33.111Z,98144.61
2018-05-29T11:40:00.573Z,98139.38
2018-05-29T11:42:28.068Z,98143.88
2018-05-29T11:44:55.511Z,98124.61
2018-05-29T11:47:23.036Z,98134.23
2018-05-29T11:49:50.519Z,98135.22
2018-05-29T11:52:18.006Z,98131.41
2018-05-29T11:54:46.433Z,98129.34
2018-05-29T11:57:14.028Z,98127.36
2018-05-29T11:59:41.521Z,98126.86
2018-05-29T12:02:08.977Z,98122.17
2018-05-29T12:04:36.448Z,98131.95
2018-05-29T12:07:03.866Z,98126.91
2018-05-29T12:09:31.333Z,98118.09
2018-05-29T12:12:10.491Z,98114.93
2018-05-29T12:14:38.032Z,98115.73
2018-05-29T12:17:05.467Z,98119.21
2018-05-29T12:19:32.931Z,98119.73
2018-05-29T12:22:00.481Z,98111.93
2018-05-29T12:24:27.942Z,98114.28
2018-05-29T12:26:55.400Z,98115.45
2018-05-29T12:29:22.837Z,98116.66
2018-05-29T12:31:50.424Z,98113.47
2018-05-29T12:34:17.935Z,98109.08
2018-05-29T12:36:45.405Z,98101.52
2018-05-29T12:39:13.005Z,98101.25
2018-05-29T12:41:40.464Z,98098.77
2018-05-29T12:46:34.636Z,98111.23
2018-05-29T12:49:02.103Z,98119.34
2018-05-29T12:51:29.572Z,98111.22
2018-05-29T12:53:57.001Z,98106.92
2018-05-29T12:56:24.488Z,98104.81
2018-05-29T12:58:51.932Z,98112.42
2018-05-29T13:01:19.409Z,98124.20
2018-05-29T13:03:47.105Z,98130.31
2018-05-29T13:06:14.610Z,98129.52
2018-05-29T13:08:42.083Z,98131.81
2018-05-29T13:11:09.535Z,98139.07
2018-05-29T13:13:38.465Z,98134.95
2018-05-29T13:16:05.894Z,98133.92
2018-05-29T13:18:33.342Z,98135.05
2018-05-29T13:21:00.788Z,98126.98
2018-05-29T13:23:28.249Z,98117.36
2018-05-29T13:25:55.685Z,98121.09
2018-05-29T13:28:23.198Z,98100.25
2018-05-29T13:30:50.681Z,98094.02
2018-05-29T13:33:18.141Z,98092.93
2018-05-29T13:35:45.596Z,98095.51
2018-05-29T13:38:13.155Z,98092.42
2018-05-29T13:40:40.678Z,98102.80
2018-05-29T13:43:08.117Z,98112.92
2018-05-29T13:45:35.576Z,98124.33
2018-05-29T13:48:03.026Z,98118.80
2018-05-29T13:50:30.494Z,98123.63
2018-05-29T13:52:57.978Z,98123.91
2018-05-29T13:55:25.453Z,98119.14
2018-05-29T13:57:52.911Z,98117.31
2018-05-29T14:00:20.360Z,98113.46
2018-05-29T14:02:47.892Z,98102.44
2018-05-29T14:05:15.373Z,98116.52
2018-05-29T14:07:42.817Z,98137.72
2018-05-29T14:10:10.278Z,98134.67
2018-05-29T14:12:37.751Z,98125.94
2018-05-29T14:15:05.249Z,98122.00
2018-05-29T14:17:32.737Z,98120.30
2018-05-29T14:20:00.197Z,98123.59
2018-05-29T14:22:27.677Z,98123.92
2018-05-29T14:24:55.182Z,98108.50
2018-05-29T14:27:22.637Z,98110.84
2018-05-29T14:29:50.095Z,98101.94
2018-05-29T14:32:17.820Z,98107.94
2018-05-29T14:34:45.337Z,98104.38
2018-05-29T14:37:12.834Z,98089.05
2018-05-29T14:39:40.279Z,98074.99
2018-05-29T14:42:07.722Z,98083.56
2018-05-29T14:44:35.192Z,98082.55
2018-05-29T14:47:02.768Z,98074.19
2018-05-29T14:49:30.225Z,98072.34
2018-05-29T14:51:57.693Z,98074.03
2018-05-29T14:54:25.320Z,98071.72
2018-05-29T14:56:52.804Z,98071.53
2018-05-29T14:59:20.447Z,98072.03
2018-05-29T15:01:48.967Z,98071.63
2018-05-29T15:04:16.422Z,98074.14
2018-05-29T15:06:43.901Z,98073.52
2018-05-29T15:09:11.683Z,98091.39
2018-05-29T15:11:39.228Z,98096.89
2018-05-29T15:14:06.726Z,98099.05
2018-05-29T15:16:34.151Z,98101.42
2018-05-29T15:19:01.729Z,98111.22
2018-05-29T15:21:29.157Z,98114.67
2018-05-29T15:23:56.690Z,98096.28
2018-05-29T15:26:24.118Z,98086.88
2018-05-29T15:28:51.655Z,98084.56
2018-05-29T15:31:19.096Z,98088.10
2018-05-29T15:33:46.543Z,98087.84
2018-05-29T15:36:13.987Z,98087.08
2018-05-29T15:38:41.869Z,98081.09
2018-05-29T15:41:09.339Z,98062.91
2018-05-29T15:43:36.842Z,98054.68
2018-05-29T15:46:04.361Z,98049.85
2018-05-29T15:48:31.846Z,98052.46
2018-05-29T15:50:59.325Z,98055.35
2018-05-29T15:53:26.820Z,98048.38
2018-05-29T15:55:54.218Z,98043.72
2018-05-29T15:58:21.661Z,98051.23
2018-05-29T16:00:49.125Z,98038.58
2018-05-29T16:03:16.588Z,98036.83
2018-05-29T16:05:44.037Z,98040.92
2018-05-29T16:08:11.494Z,98049.67
2018-05-29T16:10:38.950Z,98048.19
2018-05-29T16:13:06.399Z,98037.78
2018-05-29T16:15:33.864Z,98029.39
2018-05-29T16:18:01.333Z,98038.98
2018-05-29T16:20:28.890Z,98038.94
2018-05-29T16:22:56.371Z,98033.68
2018-05-29T16:25:23.903Z,98028.73
2018-05-29T16:27:51.342Z,98023.17
2018-05-29T16:30:18.781Z,98018.91
2018-05-29T16:32:46.529Z,98020.80
2018-05-29T16:35:13.962Z,98013.84
2018-05-29T16:37:41.434Z,98011.78
2018-05-29T16:40:08.917Z,98010.45
2018-05-29T16:42:36.382Z,98010.70
2018-05-29T16:45:03.838Z,98008.93
2018-05-29T16:47:31.333Z,97998.33
2018-05-29T16:49:58.777Z,98002.96
2018-05-29T16:52:26.239Z,98008.35
2018-05-29T16:54:53.666Z,98014.02
2018-05-29T16:57:21.159Z,98006.98
2018-05-29T16:59:48.708Z,98008.53
2018-05-29T17:02:16.192Z,98000.14
2018-05-29T17:04:43.781Z,98001.77
2018-05-29T17:07:11.304Z,98010.83
2018-05-29T17:09:38.830Z,98009.59
2018-05-29T17:12:06.288Z,98003.42
2018-05-29T17:14:34.565Z,98003.66
2018-05-29T17:17:02.025Z,98017.93
2018-05-29T17:19:29.505Z,98015.12
2018-05-29T17:21:57.137Z,98013.22
2018-05-29T17:24:24.562Z,98014.97
2018-05-29T17:26:52.001Z,98026.39
2018-05-29T17:29:19.441Z,98030.00
2018-05-29T17:31:46.881Z,98029.56
2018-05-29T17:34:14.330Z,98038.84
2018-05-29T17:36:42.060Z,98044.57
2018-05-29T17:39:09.527Z,98046.59
2018-05-29T17:41:37.030Z,98053.49
2018-05-29T17:44:04.549Z,98059.83
2018-05-29T17:46:32.045Z,98065.44
2018-05-29T17:48:59.508Z,98067.76
2018-05-29T17:51:27.069Z,98074.88
2018-05-29T17:53:54.546Z,98079.80
2018-05-29T17:56:22.028Z,98079.09
2018-05-29T17:58:49.466Z,98083.19
2018-05-29T18:01:16.935Z,98088.56
2018-05-29T18:03:44.652Z,98083.23
2018-05-29T18:06:12.150Z,98086.02
2018-05-29T18:08:39.578Z,98093.92
2018-05-29T18:11:07.020Z,98095.32
2018-05-29T18:13:34.453Z,98096.58
2018-05-29T18:16:01.912Z,98105.20
2018-05-29T18:18:29.400Z,98107.61
2018-05-29T18:20:56.930Z,98107.87
2018-05-29T18:23:24.424Z,98107.12
2018-05-29T18:25:51.977Z,98107.64
2018-05-29T18:28:21.226Z,98117.19
2018-05-29T18:30:49.027Z,98110.18
2018-05-29T18:33:16.568Z,98106.64
2018-05-29T18:35:44.008Z,98109.13
2018-05-29T18:38:11.448Z,98113.49
2018-05-29T18:40:38.967Z,98109.03
2018-05-29T18:43:07.593Z,98113.91
2018-05-29T18:45:35.065Z,98117.03
2018-05-29T18:48:02.573Z,98113.88
2018-05-29T18:50:30.060Z,98120.08
2018-05-29T18:52:57.688Z,98126.23
2018-05-29T18:55:25.190Z,98122.91
2018-05-29T18:57:52.664Z,98119.00
2018-05-29T19:00:20.132Z,98120.58
2018-05-29T19:02:47.726Z,98115.75
2018-05-29T19:05:15.270Z,98121.95
2018-05-29T19:07:42.758Z,98118.30
2018-05-29T19:10:10.214Z,98114.20
2018-05-29T19:12:37.679Z,98122.01
2018-05-29T19:15:05.265Z,98125.61
2018-05-29T19:17:32.742Z,98124.61
2018-05-29T19:20:00.949Z,98124.17
2018-05-29T19:22:28.552Z,98125.20
2018-05-29T19:24:56.012Z,98117.55
2018-05-29T19:27:23.517Z,98118.81
2018-05-29T19:29:51.188Z,98126.92
2018-05-29T19:32:18.648Z,98121.66
2018-05-29T19:34:46.202Z,98133.51
2018-05-29T19:37:13.675Z,98134.43
2018-05-29T19:39:41.153Z,98127.97
2018-05-29T19:42:08.653Z,98138.72
2018-05-29T19:44:39.161Z,98138.67
2018-05-29T19:47:06.766Z,98141.63
2018-05-29T19:49:34.228Z,98146.77
2018-05-29T19:52:01.683Z,98148.59
2018-05-29T19:54:29.185Z,98139.88
2018-05-29T19:56:56.641Z,98139.86
2018-05-29T19:59:24.178Z,98139.95
2018-05-29T20:01:51.754Z,98137.12
2018-05-29T20:04:19.217Z,98133.27
2018-05-29T20:06:46.714Z,98137.86
2018-05-29T20:09:14.222Z,98132.81
2018-05-29T20:11:41.716Z,98133.00
2018-05-29T20:14:09.159Z,98132.41
2018-05-29T20:16:36.678Z,98133.51
2018-05-29T20:19:04.275Z,98129.03
2018-05-29T20:21:31.813Z,98134.66
2018-05-29T20:23:59.298Z,98141.86
2018-05-29T20:26:26.756Z,98142.41
2018-05-29T20:28:54.235Z,98141.41
2018-05-29T20:31:21.685Z,98141.84
2018-05-29T20:33:49.136Z,98144.76
2018-05-29T20:36:16.574Z,98150.37
2018-05-29T20:38:44.296Z,98147.07
2018-05-29T20:41:11.800Z,98146.57
2018-05-29T20:43:39.423Z,98147.45
2018-05-29T20:46:06.956Z,98155.23
2018-05-29T20:48:34.480Z,98155.09
2018-05-29T20:51:01.958Z,98150.52
2018-05-29T20:53:29.399Z,98151.86
2018-05-29T20:55:56.839Z,98151.23
2018-05-29T20:58:24.413Z,98147.88
2018-05-29T21:00:51.878Z,98151.78
2018-05-29T21:03:20.841Z,98169.14
2018-05-29T21:05:48.277Z,98159.22
2018-05-29T21:08:15.729Z,98165.54
2018-05-29T21:10:43.287Z,98165.91
2018-05-29T21:13:10.756Z,98164.83
2018-05-29T21:15:38.290Z,98167.28
2018-05-29T21:18:05.745Z,98170.17
2018-05-29T21:20:33.328Z,98169.12
2018-05-29T21:23:00.846Z,98171.70
2018-05-29T21:25:28.299Z,98162.88
2018-05-29T21:27:55.745Z,98162.02
2018-05-29T21:30:23.213Z,98168.12
2018-05-29T21:32:50.641Z,98153.09
2018-05-29T21:35:18.124Z,98152.92
2018-05-29T21:37:45.609Z,98153.53
2018-05-29T21:40:13.261Z,98148.45
2018-05-29T21:42:40.681Z,98151.55
2018-05-29T21:45:08.132Z,98148.22
2018-05-29T21:47:35.585Z,98152.84
2018-05-29T21:50:03.082Z,98151.74
2018-05-29T21:52:30.536Z,98151.92
2018-05-29T21:54:58.030Z,98151.52
2018-05-29T21:57:25.511Z,98148.71
2018-05-29T21:59:53.018Z,98156.86
2018-05-29T22:02:20.468Z,98154.62
2018-05-29T22:04:47.913Z,98150.34
2018-05-29T22:07:15.364Z,98160.47
2018-05-29T22:09:42.814Z,98160.21
2018-05-29T22:12:11.034Z,98156.81
2018-05-29T22:14:38.584Z,98165.33
2018-05-29T22:17:06.140Z,98163.70
2018-05-29T22:19:33.615Z,98165.05
2018-05-29T22:22:01.061Z,98163.63
2018-05-29T22:24:28.604Z,98166.08
2018-05-29T22:26:56.030Z,98153.84
2018-05-29T22:29:23.485Z,98151.17
2018-05-29T22:31:50.921Z,98151.38
2018-05-29T22:34:18.377Z,98159.88
2018-05-29T22:36:45.916Z,98169.35
2018-05-29T22:39:13.374Z,98176.62
2018-05-29T22:41:40.916Z,98174.77
2018-05-29T22:44:08.348Z,98176.16
2018-05-29T22:46:35.824Z,98179.68
2018-05-29T22:49:03.272Z,98177.63
2018-05-29T22:51:30.774Z,98175.44
2018-05-29T22:53:58.226Z,98177.86
2018-05-29T22:56:26.819Z,98182.33
2018-05-29T22:58:56.279Z,98182.75
2018-05-29T23:01:24.662Z,98192.32
2018-05-29T23:03:52.101Z,98193.35
2018-05-29T23:06:19.548Z,98183.96
2018-05-29T23:08:47.017Z,98189.53
2018-05-29T23:11:14.549Z,98190.09
2018-05-29T23:13:42.035Z,98196.99
2018-05-29T23:16:09.484Z,98203.00
2018-05-29T23:18:36.935Z,98201.11
2018-05-29T23:21:04.384Z,98207.28
2018-05-29T23:23:31.890Z,98203.34
2018-05-29T23:25:59.338Z,98202.97
2018-05-29T23:28:26.789Z,98209.28
2018-05-29T23:30:54.259Z,98211.98
2018-05-29T23:33:21.817Z,98210.45
2018-05-29T23:35:49.271Z,98212.23
2018-05-29T23:38:16.728Z,98212.83
2018-05-29T23:40:44.169Z,98218.07
2018-05-29T23:43:11.612Z,98219.28
2018-05-29T23:45:39.074Z,98217.50
2018-05-29T23:48:06.513Z,98222.78
2018-05-29T23:50:33.999Z,98216.09
2018-05-29T23:53:01.449Z,98214.73
2018-05-29T23:55:28.899Z,98219.97
2018-05-29T23:57:56.341Z,98221.88
